createdAt,value
2019-05-22T00:02:27.992Z,13.72
2019-05-22T00:05:16.601Z,12.65
2019-05-22T00:07:51.238Z,12.85
2019-05-22T00:13:04.401Z,12.75
2019-05-22T00:15:38.849Z,13.72
2019-05-22T00:18:13.542Z,13.38
2019-05-22T00:20:48.082Z,13.45
2019-05-22T00:23:23.216Z,13.50
2019-05-22T00:25:58.761Z,13.83
2019-05-22T00:28:33.018Z,13.48
2019-05-22T00:31:07.988Z,13.50
2019-05-22T00:33:43.613Z,13.53
2019-05-22T00:36:19.190Z,13.90
2019-05-22T00:38:53.556Z,14.03
2019-05-22T00:41:29.920Z,14.25
2019-05-22T00:44:05.752Z,14.95
2019-05-22T00:46:40.952Z,14.53
2019-05-22T00:49:17.680Z,13.58
2019-05-22T00:52:07.133Z,15.35
2019-05-22T00:54:51.190Z,14.60
2019-05-22T00:57:29.737Z,15.38
2019-05-22T01:00:12.177Z,14.60
2019-05-22T01:02:49.122Z,15.55
2019-05-22T01:05:24.832Z,16.07
2019-05-22T01:07:58.808Z,14.98
2019-05-22T01:10:32.793Z,14.57
2019-05-22T01:13:07.483Z,15.98
2019-05-22T01:18:16.100Z,13.45
2019-05-22T01:20:53.999Z,14.15
2019-05-22T01:23:29.311Z,13.83
2019-05-22T01:26:04.785Z,14.33
2019-05-22T01:28:41.967Z,14.05
2019-05-22T01:31:23.307Z,14.80
2019-05-22T01:33:59.053Z,14.25
2019-05-22T01:36:34.044Z,15.20
2019-05-22T01:39:13.802Z,14.90
2019-05-22T01:41:50.183Z,14.10
2019-05-22T01:44:26.064Z,15.43
2019-05-22T01:47:04.548Z,16.70
2019-05-22T01:49:41.160Z,16.60
2019-05-22T01:52:16.268Z,15.23
2019-05-22T01:54:50.540Z,15.98
2019-05-22T01:57:24.209Z,15.65
2019-05-22T01:59:58.962Z,15.32
2019-05-22T02:05:06.594Z,15.15
2019-05-22T02:10:16.778Z,16.15
2019-05-22T02:12:56.236Z,16.50
2019-05-22T02:15:31.310Z,16.87
2019-05-22T02:18:07.730Z,17.07
2019-05-22T02:20:43.778Z,17.37
2019-05-22T02:23:19.134Z,16.32
2019-05-22T02:25:55.684Z,16.42
2019-05-22T02:28:30.799Z,17.80
2019-05-22T02:31:05.860Z,16.90
2019-05-22T02:33:55.279Z,17.23
2019-05-22T02:36:30.008Z,17.55
2019-05-22T02:41:43.302Z,15.85
2019-05-22T02:44:17.735Z,15.98
2019-05-22T02:46:52.639Z,15.68
2019-05-22T02:49:28.059Z,15.80
2019-05-22T02:52:02.207Z,16.35
2019-05-22T02:54:37.341Z,16.93
2019-05-22T02:57:12.392Z,17.35
2019-05-22T02:59:47.636Z,16.45
2019-05-22T03:02:22.721Z,16.40
2019-05-22T03:04:59.212Z,16.50
2019-05-22T03:07:32.990Z,17.02
2019-05-22T03:10:09.270Z,15.18
2019-05-22T03:12:44.912Z,16.35
2019-05-22T03:15:21.770Z,16.10
2019-05-22T03:18:04.029Z,17.42
2019-05-22T03:20:42.639Z,17.15
2019-05-22T03:23:34.288Z,17.30
2019-05-22T03:26:09.476Z,16.42
2019-05-22T03:31:17.185Z,15.40
2019-05-22T03:33:52.147Z,16.93
2019-05-22T03:36:27.678Z,17.32
2019-05-22T03:39:02.079Z,16.62
2019-05-22T03:41:37.161Z,17.05
2019-05-22T03:44:15.889Z,17.15
2019-05-22T03:46:51.448Z,16.95
2019-05-22T03:49:30.842Z,17.20
2019-05-22T03:52:05.132Z,17.85
2019-05-22T03:54:41.594Z,17.17
2019-05-22T03:57:18.530Z,17.90
2019-05-22T03:59:52.530Z,18.15
2019-05-22T04:02:27.315Z,16.55
2019-05-22T04:07:34.927Z,17.52
2019-05-22T04:10:11.613Z,17.00
2019-05-22T04:12:45.769Z,18.15
2019-05-22T04:15:19.768Z,17.52
2019-05-22T04:17:54.953Z,16.82
2019-05-22T04:20:31.054Z,15.85
2019-05-22T04:23:06.035Z,16.62
2019-05-22T04:25:40.478Z,16.50
2019-05-22T04:28:15.755Z,17.85
2019-05-22T04:30:50.204Z,17.00
2019-05-22T04:33:23.888Z,16.73
2019-05-22T04:35:57.888Z,17.00
2019-05-22T04:38:33.242Z,17.62
2019-05-22T04:41:08.836Z,15.72
2019-05-22T04:43:44.332Z,16.73
2019-05-22T04:46:20.459Z,16.62
2019-05-22T04:48:55.413Z,16.55
2019-05-22T04:51:32.224Z,16.57
2019-05-22T04:54:07.014Z,14.98
2019-05-22T04:56:42.741Z,16.48
2019-05-22T04:59:20.523Z,16.12
2019-05-22T05:01:55.382Z,17.73
2019-05-22T05:04:33.052Z,15.38
2019-05-22T05:07:07.768Z,16.32
2019-05-22T05:09:42.527Z,16.00
2019-05-22T05:12:20.319Z,16.10
2019-05-22T05:14:55.451Z,16.35
2019-05-22T05:17:30.506Z,17.10
2019-05-22T05:20:05.819Z,20.50
2019-05-22T05:22:46.766Z,86.65
2019-05-22T05:25:22.322Z,68.10
2019-05-22T05:27:57.932Z,17.60
2019-05-22T05:30:40.716Z,17.40
2019-05-22T05:33:15.341Z,16.42
2019-05-22T05:35:50.622Z,16.80
2019-05-22T05:38:38.220Z,15.75
2019-05-22T05:41:13.753Z,16.65
2019-05-22T05:46:21.592Z,16.05
2019-05-22T05:51:42.821Z,16.85
2019-05-22T05:54:19.243Z,17.37
2019-05-22T05:56:53.641Z,15.80
2019-05-22T05:59:28.864Z,18.10
2019-05-22T06:02:03.545Z,17.12
2019-05-22T06:04:41.180Z,17.87
2019-05-22T06:07:26.626Z,16.82
2019-05-22T06:10:19.702Z,17.50
2019-05-22T06:13:07.874Z,17.00
2019-05-22T06:15:47.827Z,16.55
2019-05-22T06:18:37.289Z,15.75
2019-05-22T06:21:25.891Z,17.15
2019-05-22T06:24:21.267Z,17.07
2019-05-22T06:27:04.340Z,17.95
2019-05-22T06:29:43.410Z,17.10
2019-05-22T06:32:36.279Z,17.25
2019-05-22T06:35:11.230Z,18.32
2019-05-22T06:38:09.058Z,17.40
2019-05-22T06:40:42.906Z,16.95
2019-05-22T06:43:31.692Z,16.70
2019-05-22T06:46:06.719Z,16.25
2019-05-22T06:48:42.493Z,16.70
2019-05-22T06:51:19.650Z,16.48
2019-05-22T06:53:55.455Z,16.65
2019-05-22T06:56:30.037Z,16.40
2019-05-22T06:59:04.125Z,16.87
2019-05-22T07:01:41.514Z,15.48
2019-05-22T07:04:18.128Z,15.15
2019-05-22T07:06:51.903Z,13.40
2019-05-22T07:09:28.091Z,14.77
2019-05-22T07:12:04.113Z,13.90
2019-05-22T07:14:40.177Z,13.83
2019-05-22T07:17:17.146Z,12.88
2019-05-22T07:19:53.548Z,13.00
2019-05-22T07:22:28.545Z,13.05
2019-05-22T07:25:04.250Z,13.88
2019-05-22T07:27:38.103Z,12.80
2019-05-22T07:30:13.871Z,13.53
2019-05-22T07:32:49.110Z,13.93
2019-05-22T07:35:24.159Z,12.88
2019-05-22T07:40:37.465Z,13.60
2019-05-22T07:43:11.624Z,14.43
2019-05-22T07:45:47.060Z,13.55
2019-05-22T07:48:28.957Z,14.45
2019-05-22T07:51:05.509Z,13.78
2019-05-22T07:53:41.058Z,14.30
2019-05-22T07:56:17.025Z,12.55
2019-05-22T07:58:51.523Z,13.72
2019-05-22T08:01:27.150Z,14.53
2019-05-22T08:04:02.310Z,14.00
2019-05-22T08:06:37.246Z,14.18
2019-05-22T08:09:15.647Z,13.55
2019-05-22T08:11:49.900Z,13.88
2019-05-22T08:14:25.734Z,14.05
2019-05-22T08:16:59.741Z,13.93
2019-05-22T08:19:33.858Z,13.80
2019-05-22T08:22:08.430Z,14.07
2019-05-22T08:24:43.187Z,13.30
2019-05-22T08:29:49.493Z,13.22
2019-05-22T08:32:26.819Z,14.07
2019-05-22T08:35:01.430Z,13.45
2019-05-22T08:37:40.145Z,14.23
2019-05-22T08:40:16.188Z,13.45
2019-05-22T08:42:50.119Z,12.15
2019-05-22T08:45:23.880Z,12.00
2019-05-22T08:47:58.485Z,12.98
2019-05-22T08:50:34.500Z,12.18
2019-05-22T08:53:09.384Z,11.57
2019-05-22T08:55:44.446Z,11.65
2019-05-22T08:58:18.724Z,13.18
2019-05-22T09:00:53.108Z,12.23
2019-05-22T09:03:26.731Z,12.30
2019-05-22T09:06:00.428Z,12.03
2019-05-22T09:11:08.075Z,12.43
2019-05-22T09:13:41.988Z,12.23
2019-05-22T09:16:18.238Z,12.80
2019-05-22T09:18:52.698Z,13.00
2019-05-22T09:21:26.939Z,12.53
2019-05-22T09:24:02.785Z,12.43
2019-05-22T09:26:36.851Z,13.43
2019-05-22T09:29:12.164Z,11.97
2019-05-22T09:31:46.306Z,12.68
2019-05-22T09:34:19.992Z,13.32
2019-05-22T09:36:55.015Z,12.78
2019-05-22T09:39:31.527Z,13.00
2019-05-22T09:42:05.827Z,12.95
2019-05-22T09:44:39.995Z,12.98
2019-05-22T09:47:14.739Z,12.07
2019-05-22T09:52:22.357Z,13.62
2019-05-22T09:54:57.938Z,13.45
2019-05-22T09:57:33.363Z,13.48
2019-05-22T10:00:13.527Z,16.87
2019-05-22T10:02:48.708Z,14.10
2019-05-22T10:05:22.470Z,14.18
2019-05-22T10:08:00.939Z,15.90
2019-05-22T10:10:34.630Z,14.13
2019-05-22T10:13:09.768Z,13.80
2019-05-22T10:15:44.089Z,14.58
2019-05-22T10:18:18.515Z,14.05
2019-05-22T10:20:52.665Z,19.57
2019-05-22T10:23:27.716Z,15.00
2019-05-22T10:26:02.032Z,15.23
2019-05-22T10:28:37.411Z,15.23
2019-05-22T10:31:13.457Z,19.25
2019-05-22T10:33:51.249Z,15.32
2019-05-22T10:36:23.989Z,13.95
2019-05-22T10:38:58.170Z,14.70
2019-05-22T10:44:09.266Z,14.30
2019-05-22T10:46:44.057Z,14.07
2019-05-22T10:49:19.020Z,14.28
2019-05-22T10:51:53.316Z,13.53
2019-05-22T10:54:28.714Z,13.22
2019-05-22T10:57:02.841Z,13.93
2019-05-22T10:59:37.278Z,14.18
2019-05-22T11:05:04.534Z,14.18
2019-05-22T11:07:38.955Z,14.03
2019-05-22T11:10:13.701Z,12.60
2019-05-22T11:12:49.508Z,12.63
2019-05-22T11:15:24.019Z,12.88
2019-05-22T11:20:32.529Z,13.05
2019-05-22T11:23:08.884Z,14.03
2019-05-22T11:25:43.729Z,13.32
2019-05-22T11:28:17.818Z,13.13
2019-05-22T11:30:53.086Z,13.15
2019-05-22T11:33:27.105Z,13.20
2019-05-22T11:36:01.405Z,14.20
2019-05-22T11:38:48.033Z,14.20
2019-05-22T11:41:23.031Z,13.18
2019-05-22T11:44:01.513Z,13.85
2019-05-22T11:46:37.879Z,13.18
2019-05-22T11:49:14.550Z,12.78
2019-05-22T11:51:52.177Z,12.93
2019-05-22T11:54:26.808Z,12.98
2019-05-22T11:59:38.147Z,13.20
2019-05-22T12:02:15.719Z,13.58
2019-05-22T12:04:51.209Z,14.40
2019-05-22T12:07:25.573Z,13.78
2019-05-22T12:09:59.992Z,12.98
2019-05-22T12:12:36.803Z,14.15
2019-05-22T12:15:14.406Z,13.45
2019-05-22T12:17:48.639Z,14.47
2019-05-22T12:20:28.881Z,14.23
2019-05-22T12:23:05.919Z,13.72
2019-05-22T12:25:40.877Z,12.85
2019-05-22T12:28:16.095Z,14.50
2019-05-22T12:30:51.491Z,14.98
2019-05-22T12:33:25.297Z,15.25
2019-05-22T12:35:59.575Z,14.78
2019-05-22T12:38:35.340Z,15.53
2019-05-22T12:41:10.653Z,14.90
2019-05-22T12:43:46.695Z,15.03
2019-05-22T12:46:27.350Z,15.38
2019-05-22T12:49:08.783Z,14.73
2019-05-22T12:51:42.606Z,14.93
2019-05-22T12:54:16.930Z,15.43
2019-05-22T12:56:52.495Z,15.05
2019-05-22T12:59:29.223Z,16.30
2019-05-22T13:02:04.564Z,14.25
2019-05-22T13:04:43.381Z,14.85
2019-05-22T13:07:18.669Z,15.05
2019-05-22T13:09:53.568Z,15.25
2019-05-22T13:12:28.581Z,13.70
2019-05-22T13:15:09.978Z,13.80
2019-05-22T13:17:41.528Z,14.20
2019-05-22T13:20:17.756Z,12.85
2019-05-22T13:22:57.021Z,13.70
2019-05-22T13:25:34.068Z,14.10
2019-05-22T13:28:09.127Z,13.55
2019-05-22T13:30:47.088Z,12.47
2019-05-22T13:33:23.782Z,13.18
2019-05-22T13:35:59.729Z,13.18
2019-05-22T13:41:10.950Z,13.18
2019-05-22T13:43:45.753Z,13.55
2019-05-22T13:46:21.733Z,13.40
2019-05-22T13:49:00.157Z,13.28
2019-05-22T13:51:41.026Z,12.82
2019-05-22T13:54:18.231Z,13.90
2019-05-22T13:57:04.274Z,14.00
2019-05-22T13:59:52.274Z,13.80
2019-05-22T14:02:40.371Z,14.35
2019-05-22T14:05:17.416Z,14.43
2019-05-22T14:07:58.542Z,14.15
2019-05-22T14:10:35.431Z,14.38
2019-05-22T14:13:09.843Z,13.65
2019-05-22T14:15:54.534Z,14.38
2019-05-22T14:18:24.518Z,14.43
2019-05-22T14:21:01.772Z,14.43
2019-05-22T14:23:37.234Z,14.47
2019-05-22T14:26:14.807Z,13.90
2019-05-22T14:28:52.631Z,14.68
2019-05-22T14:31:27.023Z,13.65
2019-05-22T14:34:05.480Z,14.05
2019-05-22T14:36:42.653Z,13.58
2019-05-22T14:39:20.955Z,14.68
2019-05-22T14:41:55.828Z,13.75
2019-05-22T14:44:34.089Z,14.30
2019-05-22T14:47:14.865Z,13.78
2019-05-22T14:49:46.314Z,14.03
2019-05-22T14:52:24.630Z,14.53
2019-05-22T14:55:06.381Z,13.95
2019-05-22T14:57:45.891Z,14.18
2019-05-22T15:00:21.335Z,14.30
2019-05-22T15:03:06.193Z,14.87
2019-05-22T15:06:00.369Z,12.93
2019-05-22T15:08:36.535Z,13.95
2019-05-22T15:14:06.367Z,13.75
2019-05-22T15:19:37.904Z,14.20
2019-05-22T15:22:12.377Z,13.65
2019-05-22T15:24:46.672Z,13.68
2019-05-22T15:27:27.200Z,14.75
2019-05-22T15:30:04.315Z,13.80
2019-05-22T15:32:44.216Z,13.65
2019-05-22T15:35:18.802Z,14.20
2019-05-22T15:37:52.986Z,14.13
2019-05-22T15:40:29.292Z,14.40
2019-05-22T15:43:17.034Z,13.65
2019-05-22T15:46:06.580Z,13.70
2019-05-22T15:48:44.451Z,13.15
2019-05-22T15:51:28.417Z,13.43
2019-05-22T15:54:08.192Z,13.00
2019-05-22T15:56:46.984Z,13.40
2019-05-22T15:59:23.432Z,13.60
2019-05-22T16:02:03.493Z,12.55
2019-05-22T16:04:42.274Z,13.10
2019-05-22T16:07:20.950Z,13.60
2019-05-22T16:09:56.438Z,13.28
2019-05-22T16:12:32.949Z,13.83
2019-05-22T16:15:12.011Z,13.48
2019-05-22T16:17:51.264Z,13.30
2019-05-22T16:20:28.109Z,13.68
2019-05-22T16:23:03.709Z,12.98
2019-05-22T16:25:39.050Z,12.85
2019-05-22T16:28:15.821Z,13.60
2019-05-22T16:30:51.345Z,12.95
2019-05-22T16:33:27.886Z,13.35
2019-05-22T16:36:02.915Z,12.88
2019-05-22T16:38:40.546Z,12.60
2019-05-22T16:41:16.656Z,12.50
2019-05-22T16:43:54.800Z,12.58
2019-05-22T16:46:32.640Z,13.18
2019-05-22T16:49:07.110Z,12.82
2019-05-22T16:54:35.819Z,12.28
2019-05-22T16:57:15.586Z,12.65
2019-05-22T16:59:51.414Z,12.23
2019-05-22T17:02:26.307Z,12.70
2019-05-22T17:05:02.169Z,12.70
2019-05-22T17:07:39.806Z,12.35
2019-05-22T17:10:15.299Z,12.55
2019-05-22T17:12:56.780Z,11.95
2019-05-22T17:15:35.679Z,11.50
2019-05-22T17:18:14.485Z,12.00
2019-05-22T17:20:50.907Z,12.68
2019-05-22T17:36:58.290Z,11.12
2019-05-22T17:39:36.845Z,12.78
2019-05-22T17:42:14.733Z,12.43
2019-05-22T17:44:51.420Z,12.60
2019-05-22T17:47:28.476Z,11.83
2019-05-22T17:50:05.278Z,12.55
2019-05-22T17:52:39.269Z,12.47
2019-05-22T17:55:14.658Z,13.05
2019-05-22T17:58:00.230Z,12.00
2019-05-22T18:00:40.137Z,11.90
2019-05-22T18:03:14.855Z,12.68
2019-05-22T18:08:23.598Z,12.00
2019-05-22T18:10:57.841Z,12.53
2019-05-22T18:13:31.531Z,12.28
2019-05-22T18:16:06.872Z,12.17
2019-05-22T18:18:41.071Z,12.00
2019-05-22T18:21:14.905Z,12.17
2019-05-22T18:24:06.774Z,12.10
2019-05-22T18:26:40.396Z,12.78
2019-05-22T18:29:14.029Z,12.30
2019-05-22T18:31:48.472Z,11.80
2019-05-22T18:34:21.717Z,12.07
2019-05-22T18:36:55.290Z,12.13
2019-05-22T18:39:30.878Z,11.83
2019-05-22T18:42:04.306Z,12.63
2019-05-22T18:44:38.528Z,12.05
2019-05-22T18:47:13.597Z,11.35
2019-05-22T18:49:47.562Z,12.45
2019-05-22T18:52:51.365Z,11.68
2019-05-22T18:55:25.418Z,11.50
2019-05-22T18:57:59.036Z,11.65
2019-05-22T19:00:33.833Z,11.43
2019-05-22T19:03:08.710Z,11.97
2019-05-22T19:05:43.838Z,11.40
2019-05-22T19:08:17.381Z,11.50
2019-05-22T19:10:51.945Z,11.55
2019-05-22T19:14:00.937Z,11.53
2019-05-22T19:16:40.989Z,11.30
2019-05-22T19:19:14.300Z,11.38
2019-05-22T19:21:47.692Z,11.30
2019-05-22T19:24:21.631Z,11.05
2019-05-22T19:27:13.384Z,10.38
2019-05-22T19:29:48.177Z,10.68
2019-05-22T19:32:23.091Z,11.90
2019-05-22T19:34:56.991Z,11.35
2019-05-22T19:37:30.944Z,10.45
2019-05-22T19:40:29.725Z,11.37
2019-05-22T19:43:04.101Z,10.85
2019-05-22T19:48:33.653Z,10.48
2019-05-22T19:51:07.852Z,11.10
2019-05-22T19:53:42.339Z,10.68
2019-05-22T19:56:17.374Z,10.45
2019-05-22T19:58:51.490Z,10.50
2019-05-22T20:01:26.972Z,10.78
2019-05-22T20:04:01.052Z,10.68
2019-05-22T20:06:38.100Z,11.10
2019-05-22T20:09:30.653Z,10.58
2019-05-22T20:12:04.564Z,11.25
2019-05-22T20:14:38.650Z,11.00
2019-05-22T20:17:13.410Z,10.75
2019-05-22T20:19:47.541Z,10.60
2019-05-22T20:22:21.079Z,10.20
2019-05-22T20:24:54.883Z,10.43
2019-05-22T20:27:28.535Z,11.20
2019-05-22T20:30:02.927Z,11.53
2019-05-22T20:32:37.570Z,10.95
2019-05-22T20:35:12.583Z,10.90
2019-05-22T20:37:49.719Z,11.45
2019-05-22T20:40:24.616Z,11.10
2019-05-22T20:45:30.861Z,10.65
2019-05-22T20:48:10.722Z,11.30
2019-05-22T20:50:46.048Z,10.93
2019-05-22T20:53:20.211Z,11.30
2019-05-22T20:55:53.844Z,11.20
2019-05-22T20:58:28.718Z,11.28
2019-05-22T21:01:02.333Z,11.73
2019-05-22T21:03:36.567Z,11.45
2019-05-22T21:06:13.111Z,11.12
2019-05-22T21:08:47.792Z,11.75
2019-05-22T21:11:24.920Z,12.15
2019-05-22T21:14:00.296Z,11.30
2019-05-22T21:16:35.514Z,11.65
2019-05-22T21:19:09.772Z,11.95
2019-05-22T21:21:44.964Z,12.05
2019-05-22T21:24:18.568Z,11.60
2019-05-22T21:26:52.428Z,11.10
2019-05-22T21:29:26.642Z,11.83
2019-05-22T21:32:00.910Z,11.12
2019-05-22T21:34:34.397Z,11.43
2019-05-22T21:39:59.364Z,12.33
2019-05-22T21:42:34.860Z,11.97
2019-05-22T21:45:09.415Z,12.35
2019-05-22T21:47:44.890Z,11.75
2019-05-22T21:50:18.873Z,12.23
2019-05-22T21:52:54.696Z,11.95
2019-05-22T21:55:28.974Z,12.10
2019-05-22T21:58:03.898Z,11.95
2019-05-22T22:00:46.549Z,12.33
2019-05-22T22:03:26.835Z,11.90
2019-05-22T22:06:01.562Z,11.70
2019-05-22T22:08:35.804Z,11.60
2019-05-22T22:11:10.015Z,12.47
2019-05-22T22:13:44.851Z,12.05
2019-05-22T22:18:51.430Z,12.70
2019-05-22T22:21:27.252Z,11.83
2019-05-22T22:24:04.352Z,11.55
2019-05-22T22:26:37.794Z,12.30
2019-05-22T22:29:11.689Z,12.05
2019-05-22T22:31:47.638Z,11.73
2019-05-22T22:34:29.822Z,11.30
2019-05-22T22:37:03.944Z,11.88
2019-05-22T22:39:39.595Z,12.00
2019-05-22T22:42:15.922Z,12.18
2019-05-22T22:44:52.381Z,11.88
2019-05-22T22:47:32.799Z,12.75
2019-05-22T22:50:08.438Z,11.85
2019-05-22T22:52:44.315Z,11.93
2019-05-22T22:57:52.796Z,12.73
2019-05-22T23:03:01.308Z,13.18
2019-05-22T23:05:37.771Z,13.03
2019-05-22T23:08:15.130Z,13.25
2019-05-22T23:10:50.108Z,14.00
2019-05-22T23:13:25.890Z,13.83
2019-05-22T23:16:00.359Z,13.38
2019-05-22T23:18:46.568Z,13.55
2019-05-22T23:21:22.196Z,13.78
2019-05-22T23:23:55.214Z,14.05
2019-05-22T23:26:30.257Z,13.05
2019-05-22T23:29:05.607Z,13.68
2019-05-22T23:31:39.706Z,14.47
2019-05-22T23:34:14.254Z,15.03
2019-05-22T23:36:48.605Z,16.50
2019-05-22T23:39:24.549Z,15.75
2019-05-22T23:42:01.030Z,16.42
2019-05-22T23:44:35.554Z,17.12
2019-05-22T23:47:09.269Z,17.80
2019-05-22T23:49:44.094Z,17.40
2019-05-22T23:52:19.289Z,18.20
2019-05-22T23:54:53.417Z,16.05
2019-05-22T23:57:28.262Z,17.40
